Flight Track Log - Related Links

Times and Time Zones

All times are in EDT time to prevent confusion due to time zone crossing. See the N240ER flight status page for this flight to view local times or setup timezone preferences in your user account.

Time Position Orientation Groundspeed Altitude Reporting Facility
EDT Latitude Longitude Course Direction KTS MPH feet Rate Location/Type
Sun 07:25:02 PM 42.9667 -87.8500 60° Northeast 129 148 2,200  Level KMKE
Sun 07:25:58 PM 42.9675 -87.8014 89° East 135 155 3,400 1,424 Climbing Chicago Center
Sun 07:27:00 PM 42.9697 -87.7453 87° East 142 163 5,000 1,500 Climbing Chicago Center
Sun 07:28:02 PM 42.9711 -87.6886 88° East 148 170 6,500 1,355 Climbing Chicago Center
Sun 07:29:04 PM 42.9733 -87.6322 87° East 149 171 7,800 1,306 Climbing Chicago Center
Sun 07:30:06 PM 42.9758 -87.5700 87° East 161 185 9,200 1,403 Climbing Chicago Center
Sun 07:31:08 PM 42.9781 -87.4953 88° East 168 193 10,700 1,306 Climbing Chicago Center
Sun 07:32:10 PM 42.9778 -87.4303 90° East 170 196 11,900 1,161 Climbing Chicago Center
Sun 07:33:12 PM 42.9717 -87.3578 97° East 184 212 13,100 1,210 Climbing Chicago Center
Sun 07:34:14 PM 42.9650 -87.2850 97° East 192 221 14,400 1,210 Climbing Chicago Center
Sun 07:35:16 PM 42.9594 -87.2139 96° East 189 217 15,600 1,113 Climbing Chicago Center
Sun 07:36:18 PM 42.9531 -87.1400 97° East 196 226 16,700 1,065 Climbing Chicago Center
Sun 07:37:20 PM 42.9467 -87.0644 97° East 200 230 17,800 1,113 Climbing Chicago Center
Sun 07:38:22 PM 42.9394 -86.9725 96° East 203 234 19,000 581 Climbing Chicago Center
Sun 07:39:24 PM 42.9308 -86.8847 98° East 230 265 19,000  Level Chicago Center
Sun 07:40:26 PM 42.9222 -86.7906 97° East 249 287 19,000  Level Chicago Center
Sun 07:41:28 PM 42.9139 -86.6947 97° East 255 293 19,000  Level Chicago Center
Sun 07:42:30 PM 42.9067 -86.5994 96° East 255 293 19,000  Level Chicago Center
Sun 07:43:32 PM 42.8972 -86.5050 98° East 253 291 19,000  Level Chicago Center
Sun 07:44:34 PM 42.8864 -86.3903 97° East 255 293 19,000  Level Chicago Center
Sun 07:45:36 PM 42.8783 -86.2950 97° East 255 293 19,000  Level Chicago Center
Sun 07:46:38 PM 42.8692 -86.2014 98° East 253 291 19,000  Level Chicago Center
Sun 07:47:40 PM 42.8600 -86.1078 98° East 253 291 19,000  Level Chicago Center
Sun 07:48:42 PM 42.8511 -86.0144 97° East 252 290 19,000  Level Chicago Center
Sun 07:49:44 PM 42.8403 -85.9025 97° East 252 290 19,000  Level Chicago Center
Sun 07:50:46 PM 42.8311 -85.8086 98° East 253 291 19,000  Level Chicago Center
Sun 07:51:48 PM 42.8219 -85.7144 98° East 253 291 19,000  Level Chicago Center
Sun 07:52:50 PM 42.8128 -85.6203 98° East 253 291 19,000  Level Chicago Center
Sun 07:53:52 PM 42.8036 -85.5267 98° East 252 290 19,000  Level Chicago Center
Sun 07:54:54 PM 42.7919 -85.4156 98° East 249 287 19,000  Level Chicago Center
Sun 07:55:56 PM 42.7831 -85.3214 97° East 251 289 19,000  Level Chicago Center
Sun 07:56:58 PM 42.7733 -85.2272 98° East 252 290 19,000  Level Chicago Center
Sun 07:58:00 PM 42.7633 -85.1331 98° East 252 290 19,000  Level Chicago Center
Sun 07:59:02 PM 42.7542 -85.0383 97° East 254 292 19,000 -47 Level Chicago Center
Sun 08:00:07 PM 42.7414 -84.9247 99° East 254 292 18,900 -516 Descending Chicago Center
Sun 08:01:10 PM 42.7314 -84.8317 98° East 250 288 17,900 -960 Descending Chicago Center
Sun 08:02:12 PM 42.7217 -84.7406 98° East 246 283 16,900 -968 Descending Chicago Center
Sun 08:03:14 PM 42.7164 -84.6514 95° East 239 275 15,900 -1,098 Descending Chicago Center
Sun 08:03:34 PM 42.7150 -84.6106 93° East 244 281 15,400 -1,125 Descending Cleveland Center
Sun 08:04:34 PM 42.7117 -84.5225 93° East 238 274 14,400 -1,000 Descending Cleveland Center
Sun 08:05:34 PM 42.7147 -84.4350 87° East 238 274 13,400 -1,000 Descending Cleveland Center
Sun 08:06:34 PM 42.7133 -84.3475 91° East 233 268 12,400 -950 Descending Cleveland Center
Sun 08:07:34 PM 42.7094 -84.2736 94° East 228 262 11,500 -950 Descending Cleveland Center
Sun 08:08:34 PM 42.7078 -84.1944 92° East 217 250 10,500 -1,050 Descending Cleveland Center
Sun 08:09:34 PM 42.7061 -84.1153 92° East 217 250 9,400 -692 Descending Cleveland Center
Sun 08:10:44 PM 42.6561 -84.0503 136° Southeast 201 231 9,000 -275 Descending Cleveland Center
Sun 08:11:45 PM 42.6181 -83.9975 134° Southeast 195 224 8,800 -678 Descending Cleveland Center
Sun 08:12:39 PM 42.5883 -83.9422 126° Southeast 204 235 7,700 -1,190 Descending Cleveland Center
Sun 08:13:46 PM 42.6178 -83.8619 63° Northeast 209 241 6,400 -1,406 Descending Cleveland Center
Sun 08:14:47 PM 42.6383 -83.7953 67° East 187 215 4,700 -1,623 Descending Cleveland Center
Sun 08:15:48 PM 42.6547 -83.7283 72° East 184 212 3,100 -984 Descending Cleveland Center
Sun 08:16:49 PM 42.6567 -83.6606 88° East 177 204 2,700 -197 Descending Cleveland Center
Sun 08:17:50 PM 42.6606 -83.5931 85° East 170 196 2,700 -148 Level Cleveland Center
Sun 08:18:51 PM 42.6600 -83.5308 91° East 159 183 2,400 -492 Descending Cleveland Center
Sun 08:19:52 PM 42.6633 -83.4831 85° East 104 120 1,700 -689 Descending Cleveland Center

Login

Don't have an account? Register now (free) for customized features, flight alerts, and more!